This is the latest recevied weather packets stored in our database for station/object KC3ELT-10. If no packets are shown the sender has not sent any weather packets the latest 10 day(s).
| Time | Temp. | Humidity | Pressure | Rain* | Wind** | Luminosity | Snow |
|---|---|---|---|---|---|---|---|
| 1777916879 | 18.89° C | 40% | 1005.5 hPa | 0 mm | 0.89 m/s, 340° | - | - |
| 1777916579 | 18.33° C | 39% | 1005.6 hPa | 0 mm | 2.68 m/s, 267° | - | - |
| 1777916279 | 18.33° C | 39% | 1005.6 hPa | 0 mm | 0.45 m/s, 292° | - | - |
| 1777915979 | 18.33° C | 40% | 1005.6 hPa | 0 mm | 0.89 m/s, 199° | - | - |
| 1777915679 | 17.78° C | 40% | 1005.8 hPa | 0 mm | 0.89 m/s, 301° | - | - |
| 1777915379 | 18.33° C | 39% | 1005.8 hPa | 0 mm | 1.79 m/s, 167° | - | - |
| 1777915079 | 18.33° C | 40% | 1005.8 hPa | 0 mm | 2.68 m/s, 212° | - | - |
| 1777914779 | 17.78° C | 40% | 1006.1 hPa | 0 mm | 4.47 m/s, 255° | - | - |
| 1777914479 | 17.78° C | 40% | 1006.1 hPa | 0 mm | 0.89 m/s, 193° | - | - |
| 1777914179 | 17.78° C | 41% | 1006.1 hPa | 0 mm | 1.34 m/s, 200° | - | - |
| 1777913879 | 17.78° C | 39% | 1006.2 hPa | 0 mm | 1.34 m/s, 233° | - | - |
| 1777913579 | 17.22° C | 41% | 1006.2 hPa | 0 mm | 4.47 m/s, 163° | - | - |
| 1777913279 | 17.22° C | 39% | 1006.2 hPa | 0 mm | 3.13 m/s, 241° | - | - |
| 1777912979 | 17.22° C | 38% | 1006.2 hPa | 0 mm | 2.68 m/s, 221° | - | - |
| 1777912679 | 17.22° C | 39% | 1006.2 hPa | 0 mm | 0.45 m/s, 176° | - | - |
| 1777912379 | 17.22° C | 38% | 1006.2 hPa | 0 mm | 1.79 m/s, 322° | - | - |
| 1777912079 | 17.22° C | 39% | 1006.4 hPa | 0 mm | 1.79 m/s, 198° | - | - |
| 1777911779 | 17.22° C | 40% | 1006.4 hPa | 0 mm | 1.34 m/s, 177° | - | - |
| 1777911479 | 17.22° C | 38% | 1006.4 hPa | 0 mm | 1.79 m/s, 127° | - | - |
| 1777911179 | 17.22° C | 39% | 1006.7 hPa | 0 mm | 1.34 m/s, 289° | - | - |
| 1777910879 | 17.78° C | 40% | 1006.7 hPa | 0 mm | 0.89 m/s, 224° | - | - |
| 1777910579 | 17.22° C | 39% | 1006.7 hPa | 0 mm | 2.24 m/s, 285° | - | - |
| 1777910279 | 17.22° C | 44% | 1006.8 hPa | 0 mm | 1.34 m/s, 0° | - | - |
| 1777909979 | 16.67° C | 41% | 1006.8 hPa | 0 mm | 1.34 m/s, 167° | - | - |
| 1777909679 | 16.67° C | 41% | 1006.8 hPa | 0 mm | 0.89 m/s, 279° | - | - |
* Rain latest hour (hover to see other rain measurements)
** Current wind speed in m/s (hover to see current wind gust speed)